sensor_id;sensor_type;location;lat;lon;timestamp;pressure;altitude;pressure_sealevel;temperature;humidity
64698;BME280;51124;53.394;-6.294;2023-02-13T00:00:14;102380.41;;;17.44;9.16
64698;BME280;51124;53.394;-6.294;2023-02-13T00:02:38;102382.93;;;17.40;9.06
64698;BME280;51124;53.394;-6.294;2023-02-13T00:05:11;102387.66;;;17.87;8.91
64698;BME280;51124;53.394;-6.294;2023-02-13T00:07:44;102391.31;;;17.74;8.79
64698;BME280;51124;53.394;-6.294;2023-02-13T00:10:18;102389.38;;;17.96;8.76
64698;BME280;51124;53.394;-6.294;2023-02-13T00:12:51;102387.66;;;17.75;8.54
64698;BME280;51124;53.394;-6.294;2023-02-13T00:15:25;102390.63;;;17.81;8.52
64698;BME280;51124;53.394;-6.294;2023-02-13T00:17:58;102392.35;;;17.43;8.51
64698;BME280;51124;53.394;-6.294;2023-02-13T00:20:31;102392.29;;;17.36;8.53
64698;BME280;51124;53.394;-6.294;2023-02-13T00:23:05;102387.21;;;17.96;8.49
64698;BME280;51124;53.394;-6.294;2023-02-13T00:25:38;102391.06;;;17.59;8.37
64698;BME280;51124;53.394;-6.294;2023-02-13T00:28:11;102389.49;;;17.67;8.43
64698;BME280;51124;53.394;-6.294;2023-02-13T00:30:45;102389.34;;;17.38;8.38
64698;BME280;51124;53.394;-6.294;2023-02-13T00:33:18;102386.77;;;17.58;8.34
64698;BME280;51124;53.394;-6.294;2023-02-13T00:36:01;102392.41;;;17.27;8.37
64698;BME280;51124;53.394;-6.294;2023-02-13T00:38:24;102390.43;;;17.49;8.36
64698;BME280;51124;53.394;-6.294;2023-02-13T00:40:57;102390.33;;;17.01;8.36
64698;BME280;51124;53.394;-6.294;2023-02-13T00:43:31;102387.02;;;17.21;8.30
64698;BME280;51124;53.394;-6.294;2023-02-13T00:46:05;102381.63;;;16.81;8.29
64698;BME280;51124;53.394;-6.294;2023-02-13T00:48:38;102383.72;;;17.19;8.31
64698;BME280;51124;53.394;-6.294;2023-02-13T00:51:12;102385.11;;;17.13;8.34
64698;BME280;51124;53.394;-6.294;2023-02-13T00:53:45;102373.19;;;17.08;8.29
64698;BME280;51124;53.394;-6.294;2023-02-13T00:56:19;102377.23;;;17.78;8.34
64698;BME280;51124;53.394;-6.294;2023-02-13T00:58:52;102377.67;;;17.86;8.27
64698;BME280;51124;53.394;-6.294;2023-02-13T01:01:26;102377.41;;;18.43;8.31
64698;BME280;51124;53.394;-6.294;2023-02-13T01:03:59;102377.58;;;18.01;8.56
64698;BME280;51124;53.394;-6.294;2023-02-13T01:06:35;102364.59;;;16.89;8.46
64698;BME280;51124;53.394;-6.294;2023-02-13T01:09:01;102372.80;;;17.36;8.41
64698;BME280;51124;53.394;-6.294;2023-02-13T01:11:27;102369.12;;;17.48;8.36
64698;BME280;51124;53.394;-6.294;2023-02-13T01:13:52;102373.67;;;17.89;8.43
64698;BME280;51124;53.394;-6.294;2023-02-13T01:16:17;102370.32;;;17.74;8.36
64698;BME280;51124;53.394;-6.294;2023-02-13T01:18:43;102366.35;;;17.94;8.35
64698;BME280;51124;53.394;-6.294;2023-02-13T01:21:13;102366.57;;;17.49;8.27
64698;BME280;51124;53.394;-6.294;2023-02-13T01:23:39;102370.91;;;17.30;8.30
64698;BME280;51124;53.394;-6.294;2023-02-13T01:26:05;102372.02;;;17.60;8.23
64698;BME280;51124;53.394;-6.294;2023-02-13T01:28:31;102370.96;;;18.48;8.27
64698;BME280;51124;53.394;-6.294;2023-02-13T01:30:57;102365.30;;;19.91;8.79
64698;BME280;51124;53.394;-6.294;2023-02-13T01:33:24;102366.18;;;19.07;9.16
64698;BME280;51124;53.394;-6.294;2023-02-13T01:35:50;102361.41;;;18.35;9.12
64698;BME280;51124;53.394;-6.294;2023-02-13T01:38:16;102361.59;;;21.32;9.28
64698;BME280;51124;53.394;-6.294;2023-02-13T01:40:46;102368.33;;;20.43;9.72
64698;BME280;51124;53.394;-6.294;2023-02-13T01:43:12;102372.42;;;20.13;10.20
64698;BME280;51124;53.394;-6.294;2023-02-13T01:45:38;102373.95;;;20.64;10.37
64698;BME280;51124;53.394;-6.294;2023-02-13T01:48:07;102368.55;;;19.87;10.53
64698;BME280;51124;53.394;-6.294;2023-02-13T01:50:38;102367.20;;;19.79;10.60
64698;BME280;51124;53.394;-6.294;2023-02-13T01:53:08;102368.14;;;19.99;10.75
64698;BME280;51124;53.394;-6.294;2023-02-13T01:55:37;102367.08;;;19.85;10.70
64698;BME280;51124;53.394;-6.294;2023-02-13T01:58:08;102360.46;;;20.15;10.85
64698;BME280;51124;53.394;-6.294;2023-02-13T02:00:36;102361.25;;;19.35;10.94
64698;BME280;51124;53.394;-6.294;2023-02-13T02:03:05;102360.39;;;19.83;10.86
64698;BME280;51124;53.394;-6.294;2023-02-13T02:05:34;102360.41;;;18.92;10.93
64698;BME280;51124;53.394;-6.294;2023-02-13T02:08:03;102358.93;;;20.05;10.93
64698;BME280;51124;53.394;-6.294;2023-02-13T02:10:30;102359.37;;;19.42;10.98
64698;BME280;51124;53.394;-6.294;2023-02-13T02:13:02;102357.30;;;19.51;11.05
64698;BME280;51124;53.394;-6.294;2023-02-13T02:15:29;102358.81;;;19.64;10.93
64698;BME280;51124;53.394;-6.294;2023-02-13T02:17:55;102358.05;;;19.20;11.10
64698;BME280;51124;53.394;-6.294;2023-02-13T02:20:28;102355.90;;;19.78;10.94
64698;BME280;51124;53.394;-6.294;2023-02-13T02:23:41;102351.09;;;19.73;11.00
64698;BME280;51124;53.394;-6.294;2023-02-13T02:27:13;102357.66;;;19.59;11.00
64698;BME280;51124;53.394;-6.294;2023-02-13T02:32:47;102345.79;;;19.10;10.39
64698;BME280;51124;53.394;-6.294;2023-02-13T02:35:15;102340.56;;;16.78;10.11
64698;BME280;51124;53.394;-6.294;2023-02-13T02:37:47;102342.69;;;17.00;9.79
64698;BME280;51124;53.394;-6.294;2023-02-13T02:40:18;102335.75;;;16.55;9.55
64698;BME280;51124;53.394;-6.294;2023-02-13T02:42:48;102337.56;;;16.88;9.24
64698;BME280;51124;53.394;-6.294;2023-02-13T02:45:14;102337.22;;;17.06;9.11
64698;BME280;51124;53.394;-6.294;2023-02-13T02:47:51;102332.95;;;17.22;9.07
64698;BME280;51124;53.394;-6.294;2023-02-13T02:50:30;102329.79;;;17.77;8.83
64698;BME280;51124;53.394;-6.294;2023-02-13T02:52:55;102327.03;;;16.78;8.79
64698;BME280;51124;53.394;-6.294;2023-02-13T02:55:31;102328.80;;;17.28;8.76
64698;BME280;51124;53.394;-6.294;2023-02-13T02:57:55;102326.31;;;17.12;8.61
64698;BME280;51124;53.394;-6.294;2023-02-13T03:00:25;102319.23;;;16.59;8.66
64698;BME280;51124;53.394;-6.294;2023-02-13T03:02:53;102317.89;;;16.39;8.65
64698;BME280;51124;53.394;-6.294;2023-02-13T03:05:23;102314.58;;;17.34;8.56
64698;BME280;51124;53.394;-6.294;2023-02-13T03:07:51;102312.99;;;17.27;8.52
64698;BME280;51124;53.394;-6.294;2023-02-13T03:10:25;102311.61;;;17.23;8.54
64698;BME280;51124;53.394;-6.294;2023-02-13T03:12:53;102307.11;;;17.04;8.56
64698;BME280;51124;53.394;-6.294;2023-02-13T03:15:20;102314.72;;;16.82;8.54
64698;BME280;51124;53.394;-6.294;2023-02-13T03:17:46;102314.21;;;16.87;8.49
64698;BME280;51124;53.394;-6.294;2023-02-13T03:20:19;102310.77;;;16.93;8.49
64698;BME280;51124;53.394;-6.294;2023-02-13T03:22:41;102307.98;;;16.19;8.43
64698;BME280;51124;53.394;-6.294;2023-02-13T03:25:17;102303.36;;;17.19;8.35
64698;BME280;51124;53.394;-6.294;2023-02-13T03:27:40;102304.22;;;17.44;8.38
64698;BME280;51124;53.394;-6.294;2023-02-13T03:30:20;102298.59;;;16.59;8.38
64698;BME280;51124;53.394;-6.294;2023-02-13T03:32:44;102297.94;;;16.62;8.38
64698;BME280;51124;53.394;-6.294;2023-02-13T03:35:21;102295.30;;;17.04;8.35
64698;BME280;51124;53.394;-6.294;2023-02-13T03:37:43;102300.76;;;16.87;8.37
64698;BME280;51124;53.394;-6.294;2023-02-13T03:40:18;102302.99;;;16.35;8.34
64698;BME280;51124;53.394;-6.294;2023-02-13T03:42:50;102304.76;;;17.04;8.36
64698;BME280;51124;53.394;-6.294;2023-02-13T03:45:20;102306.04;;;17.18;8.29
64698;BME280;51124;53.394;-6.294;2023-02-13T03:47:48;102304.28;;;16.97;8.37
64698;BME280;51124;53.394;-6.294;2023-02-13T03:50:16;102300.17;;;17.48;8.33
64698;BME280;51124;53.394;-6.294;2023-02-13T03:52:46;102295.52;;;17.69;8.35
64698;BME280;51124;53.394;-6.294;2023-02-13T03:55:15;102296.14;;;17.20;8.48
64698;BME280;51124;53.394;-6.294;2023-02-13T03:57:43;102295.19;;;16.87;8.66
64698;BME280;51124;53.394;-6.294;2023-02-13T04:00:13;102292.04;;;17.09;8.49
64698;BME280;51124;53.394;-6.294;2023-02-13T04:02:48;102290.01;;;17.40;8.43
64698;BME280;51124;53.394;-6.294;2023-02-13T04:05:10;102280.21;;;17.87;8.41
64698;BME280;51124;53.394;-6.294;2023-02-13T04:07:37;102284.99;;;16.93;8.44
64698;BME280;51124;53.394;-6.294;2023-02-13T04:10:04;102283.18;;;17.07;8.44
64698;BME280;51124;53.394;-6.294;2023-02-13T04:12:37;102282.38;;;15.85;8.53
64698;BME280;51124;53.394;-6.294;2023-02-13T04:15:10;102283.29;;;16.68;8.28
64698;BME280;51124;53.394;-6.294;2023-02-13T04:17:42;102279.37;;;16.90;8.23
64698;BME280;51124;53.394;-6.294;2023-02-13T04:20:09;102276.21;;;18.35;8.31
64698;BME280;51124;53.394;-6.294;2023-02-13T04:22:41;102274.04;;;19.58;8.71
64698;BME280;51124;53.394;-6.294;2023-02-13T04:25:07;102281.13;;;19.11;9.06
64698;BME280;51124;53.394;-6.294;2023-02-13T04:27:34;102274.96;;;17.09;9.17
64698;BME280;51124;53.394;-6.294;2023-02-13T04:30:00;102276.43;;;20.90;9.31
64698;BME280;51124;53.394;-6.294;2023-02-13T04:32:25;102281.04;;;20.16;9.92
64698;BME280;51124;53.394;-6.294;2023-02-13T04:34:51;102272.18;;;20.07;10.17
64698;BME280;51124;53.394;-6.294;2023-02-13T04:37:17;102272.78;;;19.87;10.39
64698;BME280;51124;53.394;-6.294;2023-02-13T04:39:43;102282.30;;;19.76;10.63
64698;BME280;51124;53.394;-6.294;2023-02-13T04:42:08;102279.75;;;19.04;10.79
64698;BME280;51124;53.394;-6.294;2023-02-13T04:44:34;102271.31;;;19.27;10.65
64698;BME280;51124;53.394;-6.294;2023-02-13T04:47:00;102270.28;;;19.85;10.70
64698;BME280;51124;53.394;-6.294;2023-02-13T04:49:25;102276.60;;;19.19;10.76
64698;BME280;51124;53.394;-6.294;2023-02-13T04:51:51;102273.33;;;19.57;10.88
64698;BME280;51124;53.394;-6.294;2023-02-13T04:54:17;102283.30;;;18.89;11.06
64698;BME280;51124;53.394;-6.294;2023-02-13T04:56:43;102281.73;;;19.32;10.98
64698;BME280;51124;53.394;-6.294;2023-02-13T04:59:08;102273.75;;;18.91;11.09
64698;BME280;51124;53.394;-6.294;2023-02-13T05:01:34;102279.04;;;19.31;11.02
64698;BME280;51124;53.394;-6.294;2023-02-13T05:04:00;102282.27;;;18.85;10.98
64698;BME280;51124;53.394;-6.294;2023-02-13T05:06:26;102280.55;;;18.58;11.07
64698;BME280;51124;53.394;-6.294;2023-02-13T05:08:51;102283.00;;;19.01;11.02
64698;BME280;51124;53.394;-6.294;2023-02-13T05:11:17;102284.12;;;19.21;11.05
64698;BME280;51124;53.394;-6.294;2023-02-13T05:13:43;102286.54;;;19.21;11.01
64698;BME280;51124;53.394;-6.294;2023-02-13T05:16:09;102287.40;;;19.00;11.18
64698;BME280;51124;53.394;-6.294;2023-02-13T05:18:34;102284.03;;;18.80;11.14
64698;BME280;51124;53.394;-6.294;2023-02-13T05:21:00;102286.11;;;16.18;10.99
64698;BME280;51124;53.394;-6.294;2023-02-13T05:23:25;102284.09;;;16.10;10.41
64698;BME280;51124;53.394;-6.294;2023-02-13T05:25:50;102277.45;;;16.72;10.04
64698;BME280;51124;53.394;-6.294;2023-02-13T05:28:16;102276.05;;;16.50;9.77
64698;BME280;51124;53.394;-6.294;2023-02-13T05:30:41;102271.99;;;16.42;9.69
64698;BME280;51124;53.394;-6.294;2023-02-13T05:33:06;102273.80;;;17.10;9.42
64698;BME280;51124;53.394;-6.294;2023-02-13T05:35:32;102268.00;;;16.91;9.21
64698;BME280;51124;53.394;-6.294;2023-02-13T05:37:57;102267.21;;;17.16;9.07
64698;BME280;51124;53.394;-6.294;2023-02-13T05:40:22;102268.84;;;16.53;9.00
64698;BME280;51124;53.394;-6.294;2023-02-13T05:42:47;102260.72;;;17.68;8.88
64698;BME280;51124;53.394;-6.294;2023-02-13T05:45:13;102261.32;;;17.26;8.81
64698;BME280;51124;53.394;-6.294;2023-02-13T05:47:38;102255.24;;;17.00;8.79
64698;BME280;51124;53.394;-6.294;2023-02-13T05:50:04;102257.65;;;16.65;8.81
64698;BME280;51124;53.394;-6.294;2023-02-13T05:52:29;102259.26;;;16.76;8.66
64698;BME280;51124;53.394;-6.294;2023-02-13T05:54:54;102250.73;;;17.19;8.63
64698;BME280;51124;53.394;-6.294;2023-02-13T05:57:20;102255.00;;;16.82;8.56
64698;BME280;51124;53.394;-6.294;2023-02-13T05:59:45;102247.50;;;16.51;8.58
64698;BME280;51124;53.394;-6.294;2023-02-13T06:02:11;102245.58;;;16.50;8.63
64698;BME280;51124;53.394;-6.294;2023-02-13T06:04:36;102246.82;;;17.16;8.54
64698;BME280;51124;53.394;-6.294;2023-02-13T06:07:01;102251.96;;;16.92;8.57
64698;BME280;51124;53.394;-6.294;2023-02-13T06:09:26;102243.82;;;16.73;8.52
64698;BME280;51124;53.394;-6.294;2023-02-13T06:11:52;102241.41;;;16.93;8.51
64698;BME280;51124;53.394;-6.294;2023-02-13T06:14:17;102241.50;;;16.39;8.63
64698;BME280;51124;53.394;-6.294;2023-02-13T06:16:42;102244.48;;;16.85;8.46
64698;BME280;51124;53.394;-6.294;2023-02-13T06:19:08;102235.56;;;16.93;8.40
64698;BME280;51124;53.394;-6.294;2023-02-13T06:21:33;102234.00;;;16.18;8.35
64698;BME280;51124;53.394;-6.294;2023-02-13T06:23:59;102224.57;;;16.21;8.43
64698;BME280;51124;53.394;-6.294;2023-02-13T06:26:24;102237.67;;;17.05;8.37
64698;BME280;51124;53.394;-6.294;2023-02-13T06:28:49;102231.99;;;16.47;8.47
64698;BME280;51124;53.394;-6.294;2023-02-13T06:31:14;102236.87;;;16.89;8.39
64698;BME280;51124;53.394;-6.294;2023-02-13T06:33:39;102231.19;;;16.62;8.40
64698;BME280;51124;53.394;-6.294;2023-02-13T06:36:05;102235.38;;;16.58;8.41
64698;BME280;51124;53.394;-6.294;2023-02-13T06:38:31;102234.85;;;17.15;8.40
64698;BME280;51124;53.394;-6.294;2023-02-13T06:40:59;102231.48;;;16.89;8.39
64698;BME280;51124;53.394;-6.294;2023-02-13T06:43:25;102232.08;;;16.77;8.33
64698;BME280;51124;53.394;-6.294;2023-02-13T06:45:50;102228.02;;;17.21;8.43
64698;BME280;51124;53.394;-6.294;2023-02-13T06:48:16;102223.63;;;16.56;8.46
64698;BME280;51124;53.394;-6.294;2023-02-13T06:50:41;102224.38;;;16.69;8.52
64698;BME280;51124;53.394;-6.294;2023-02-13T06:53:06;102230.24;;;17.33;8.38
64698;BME280;51124;53.394;-6.294;2023-02-13T06:55:32;102234.39;;;16.84;8.52
64698;BME280;51124;53.394;-6.294;2023-02-13T06:57:57;102233.92;;;17.27;8.49
64698;BME280;51124;53.394;-6.294;2023-02-13T07:00:20;102236.56;;;16.11;8.64
64698;BME280;51124;53.394;-6.294;2023-02-13T07:02:54;102233.43;;;16.24;8.53
64698;BME280;51124;53.394;-6.294;2023-02-13T07:05:23;102233.08;;;16.28;8.45
64698;BME280;51124;53.394;-6.294;2023-02-13T07:07:57;102226.69;;;17.22;8.32
64698;BME280;51124;53.394;-6.294;2023-02-13T07:10:30;102229.04;;;16.84;8.48
64698;BME280;51124;53.394;-6.294;2023-02-13T07:13:04;102224.09;;;19.86;8.64
64698;BME280;51124;53.394;-6.294;2023-02-13T07:15:38;102224.40;;;18.80;9.23
64698;BME280;51124;53.394;-6.294;2023-02-13T07:18:11;102238.21;;;17.84;9.31
64698;BME280;51124;53.394;-6.294;2023-02-13T07:20:45;102227.44;;;17.26;9.18
64698;BME280;51124;53.394;-6.294;2023-02-13T07:23:19;102231.78;;;19.76;9.67
64698;BME280;51124;53.394;-6.294;2023-02-13T07:25:52;102238.75;;;19.42;10.17
64698;BME280;51124;53.394;-6.294;2023-02-13T07:28:27;102234.77;;;19.67;10.36
64698;BME280;51124;53.394;-6.294;2023-02-13T07:31:03;102228.52;;;19.64;10.61
64698;BME280;51124;53.394;-6.294;2023-02-13T07:33:27;102228.94;;;18.70;10.81
64698;BME280;51124;53.394;-6.294;2023-02-13T07:36:01;102223.00;;;18.75;11.06
64698;BME280;51124;53.394;-6.294;2023-02-13T07:38:35;102221.72;;;18.68;10.98
64698;BME280;51124;53.394;-6.294;2023-02-13T07:41:09;102229.32;;;18.73;10.94
64698;BME280;51124;53.394;-6.294;2023-02-13T07:43:43;102235.00;;;19.85;10.75
64698;BME280;51124;53.394;-6.294;2023-02-13T07:46:17;102236.45;;;19.02;10.94
64698;BME280;51124;53.394;-6.294;2023-02-13T07:48:51;102238.67;;;19.98;10.67
64698;BME280;51124;53.394;-6.294;2023-02-13T07:51:25;102238.44;;;19.32;10.69
64698;BME280;51124;53.394;-6.294;2023-02-13T07:54:00;102236.41;;;20.16;10.67
64698;BME280;51124;53.394;-6.294;2023-02-13T07:56:34;102243.92;;;20.05;10.67
64698;BME280;51124;53.394;-6.294;2023-02-13T07:59:09;102242.70;;;21.09;10.46
64698;BME280;51124;53.394;-6.294;2023-02-13T08:01:43;102238.12;;;20.89;10.43
64698;BME280;51124;53.394;-6.294;2023-02-13T08:04:17;102243.51;;;21.00;10.36
64698;BME280;51124;53.394;-6.294;2023-02-13T08:06:51;102252.78;;;20.45;10.42
64698;BME280;51124;53.394;-6.294;2023-02-13T08:09:25;102252.83;;;20.65;10.39
64698;BME280;51124;53.394;-6.294;2023-02-13T08:11:59;102253.95;;;19.80;10.36
64698;BME280;51124;53.394;-6.294;2023-02-13T08:14:32;102252.31;;;18.25;9.96
64698;BME280;51124;53.394;-6.294;2023-02-13T08:17:08;102246.47;;;17.94;10.07
64698;BME280;51124;53.394;-6.294;2023-02-13T08:19:31;102255.32;;;19.37;9.72
64698;BME280;51124;53.394;-6.294;2023-02-13T08:22:05;102256.65;;;18.30;9.78
64698;BME280;51124;53.394;-6.294;2023-02-13T08:24:38;102250.49;;;18.79;9.55
64698;BME280;51124;53.394;-6.294;2023-02-13T08:27:13;102252.94;;;18.79;9.38
64698;BME280;51124;53.394;-6.294;2023-02-13T08:29:48;102252.15;;;19.25;9.32
64698;BME280;51124;53.394;-6.294;2023-02-13T08:32:22;102251.44;;;19.20;8.83
64698;BME280;51124;53.394;-6.294;2023-02-13T08:34:56;102248.86;;;19.58;8.81
64698;BME280;51124;53.394;-6.294;2023-02-13T08:37:29;102247.37;;;20.08;8.42
64698;BME280;51124;53.394;-6.294;2023-02-13T08:40:03;102246.42;;;19.97;8.43
64698;BME280;51124;53.394;-6.294;2023-02-13T08:42:37;102248.10;;;20.67;8.24
64698;BME280;51124;53.394;-6.294;2023-02-13T08:45:10;102241.38;;;20.19;8.20
64698;BME280;51124;53.394;-6.294;2023-02-13T08:47:44;102235.73;;;20.04;7.28
64698;BME280;51124;53.394;-6.294;2023-02-13T08:50:17;102237.69;;;21.63;7.23
64698;BME280;51124;53.394;-6.294;2023-02-13T08:52:51;102242.22;;;21.07;7.28
64698;BME280;51124;53.394;-6.294;2023-02-13T08:55:27;102242.06;;;21.60;7.41
64698;BME280;51124;53.394;-6.294;2023-02-13T08:57:52;102244.92;;;21.62;7.34
64698;BME280;51124;53.394;-6.294;2023-02-13T09:00:18;102248.30;;;21.74;7.25
64698;BME280;51124;53.394;-6.294;2023-02-13T09:02:43;102250.51;;;21.19;7.20
64698;BME280;51124;53.394;-6.294;2023-02-13T09:05:08;102255.15;;;21.88;7.37
64698;BME280;51124;53.394;-6.294;2023-02-13T09:07:34;102250.90;;;20.41;7.33
64698;BME280;51124;53.394;-6.294;2023-02-13T09:09:59;102252.20;;;21.34;7.25
64698;BME280;51124;53.394;-6.294;2023-02-13T09:12:24;102251.45;;;21.89;7.15
64698;BME280;51124;53.394;-6.294;2023-02-13T09:14:49;102255.38;;;22.52;7.22
64698;BME280;51124;53.394;-6.294;2023-02-13T09:17:14;102253.80;;;21.65;7.10
64698;BME280;51124;53.394;-6.294;2023-02-13T09:19:40;102258.83;;;20.73;7.39
64698;BME280;51124;53.394;-6.294;2023-02-13T09:22:05;102254.39;;;21.76;7.12
64698;BME280;51124;53.394;-6.294;2023-02-13T09:24:30;102249.28;;;22.21;6.92
64698;BME280;51124;53.394;-6.294;2023-02-13T09:26:56;102243.39;;;21.97;6.90
64698;BME280;51124;53.394;-6.294;2023-02-13T09:29:21;102245.30;;;21.80;6.88
64698;BME280;51124;53.394;-6.294;2023-02-13T09:31:47;102253.20;;;20.84;7.09
64698;BME280;51124;53.394;-6.294;2023-02-13T09:34:12;102254.96;;;20.50;7.28
64698;BME280;51124;53.394;-6.294;2023-02-13T09:36:37;102249.82;;;19.79;7.26
64698;BME280;51124;53.394;-6.294;2023-02-13T09:39:03;102249.68;;;20.38;7.36
64698;BME280;51124;53.394;-6.294;2023-02-13T09:41:30;102254.30;;;19.74;7.45
64698;BME280;51124;53.394;-6.294;2023-02-13T09:43:58;102248.11;;;19.61;7.35
64698;BME280;51124;53.394;-6.294;2023-02-13T09:46:28;102239.58;;;21.15;7.05
64698;BME280;51124;53.394;-6.294;2023-02-13T09:48:57;102246.43;;;19.91;7.33
64698;BME280;51124;53.394;-6.294;2023-02-13T09:51:24;102246.17;;;21.02;7.46
64698;BME280;51124;53.394;-6.294;2023-02-13T09:53:53;102242.33;;;20.15;7.61
64698;BME280;51124;53.394;-6.294;2023-02-13T09:56:22;102243.23;;;19.58;7.72
64698;BME280;51124;53.394;-6.294;2023-02-13T09:58:57;102244.38;;;18.79;7.83
64698;BME280;51124;53.394;-6.294;2023-02-13T10:01:28;102242.99;;;19.51;7.94
64698;BME280;51124;53.394;-6.294;2023-02-13T10:04:10;102248.33;;;19.80;7.81
64698;BME280;51124;53.394;-6.294;2023-02-13T10:06:29;102247.47;;;19.51;7.66
64698;BME280;51124;53.394;-6.294;2023-02-13T10:09:05;102255.84;;;22.76;7.87
64698;BME280;51124;53.394;-6.294;2023-02-13T10:11:34;102261.46;;;23.04;8.60
64698;BME280;51124;53.394;-6.294;2023-02-13T10:14:01;102264.69;;;20.20;8.95
64698;BME280;51124;53.394;-6.294;2023-02-13T10:16:29;102257.29;;;21.13;8.74
64698;BME280;51124;53.394;-6.294;2023-02-13T10:19:02;102257.93;;;23.17;9.19
64698;BME280;51124;53.394;-6.294;2023-02-13T10:21:32;102256.03;;;23.08;9.68
64698;BME280;51124;53.394;-6.294;2023-02-13T10:24:03;102248.84;;;23.26;9.98
64698;BME280;51124;53.394;-6.294;2023-02-13T10:26:33;102250.23;;;22.74;10.17
64698;BME280;51124;53.394;-6.294;2023-02-13T10:29:03;102244.61;;;22.14;10.45
64698;BME280;51124;53.394;-6.294;2023-02-13T10:31:30;102249.06;;;23.02;10.25
64698;BME280;51124;53.394;-6.294;2023-02-13T10:33:59;102247.10;;;22.92;10.37
64698;BME280;51124;53.394;-6.294;2023-02-13T10:36:30;102251.18;;;22.61;10.49
64698;BME280;51124;53.394;-6.294;2023-02-13T10:39:07;102259.25;;;22.35;10.53
64698;BME280;51124;53.394;-6.294;2023-02-13T10:41:39;102255.49;;;22.70;10.38
64698;BME280;51124;53.394;-6.294;2023-02-13T10:44:13;102258.15;;;22.45;10.58
64698;BME280;51124;53.394;-6.294;2023-02-13T10:46:39;102263.06;;;23.00;10.36
64698;BME280;51124;53.394;-6.294;2023-02-13T10:49:12;102255.01;;;22.85;10.29
64698;BME280;51124;53.394;-6.294;2023-02-13T10:51:37;102264.28;;;22.61;10.28
64698;BME280;51124;53.394;-6.294;2023-02-13T10:54:23;102261.23;;;22.67;10.39
64698;BME280;51124;53.394;-6.294;2023-02-13T10:56:35;102265.26;;;22.45;10.30
64698;BME280;51124;53.394;-6.294;2023-02-13T10:59:27;102265.89;;;22.63;10.12
64698;BME280;51124;53.394;-6.294;2023-02-13T11:01:39;102255.12;;;22.27;10.32
64698;BME280;51124;53.394;-6.294;2023-02-13T11:04:13;102256.55;;;21.70;10.35
64698;BME280;51124;53.394;-6.294;2023-02-13T11:06:47;102251.58;;;21.77;10.61
64698;BME280;51124;53.394;-6.294;2023-02-13T11:09:05;102247.21;;;19.59;10.52
64698;BME280;51124;53.394;-6.294;2023-02-13T11:11:33;102243.98;;;19.92;10.05
64698;BME280;51124;53.394;-6.294;2023-02-13T11:14:10;102235.70;;;19.78;9.67
64698;BME280;51124;53.394;-6.294;2023-02-13T11:16:25;102228.34;;;20.46;9.45
64698;BME280;51124;53.394;-6.294;2023-02-13T11:18:51;102220.47;;;20.51;9.42
64698;BME280;51124;53.394;-6.294;2023-02-13T11:21:21;102217.31;;;19.63;9.09
64698;BME280;51124;53.394;-6.294;2023-02-13T11:23:50;102202.58;;;20.64;8.78
64698;BME280;51124;53.394;-6.294;2023-02-13T11:26:23;102208.86;;;20.79;8.75
64698;BME280;51124;53.394;-6.294;2023-02-13T11:28:55;102201.56;;;20.16;8.60
64698;BME280;51124;53.394;-6.294;2023-02-13T11:31:26;102204.72;;;21.05;8.23
64698;BME280;51124;53.394;-6.294;2023-02-13T11:33:53;102200.99;;;20.58;8.31
64698;BME280;51124;53.394;-6.294;2023-02-13T11:36:25;102198.98;;;20.86;8.19
64698;BME280;51124;53.394;-6.294;2023-02-13T11:38:58;102198.58;;;20.66;8.18
64698;BME280;51124;53.394;-6.294;2023-02-13T11:41:25;102204.17;;;20.37;8.15
64698;BME280;51124;53.394;-6.294;2023-02-13T11:43:54;102199.78;;;19.91;8.28
64698;BME280;51124;53.394;-6.294;2023-02-13T11:46:22;102208.96;;;20.19;8.26
64698;BME280;51124;53.394;-6.294;2023-02-13T11:49:01;102207.71;;;20.56;7.92
64698;BME280;51124;53.394;-6.294;2023-02-13T11:51:17;102206.82;;;20.93;7.90
64698;BME280;51124;53.394;-6.294;2023-02-13T11:53:42;102202.97;;;20.38;7.85
64698;BME280;51124;53.394;-6.294;2023-02-13T11:56:11;102201.19;;;20.64;7.91
64698;BME280;51124;53.394;-6.294;2023-02-13T11:58:38;102190.70;;;21.21;7.77
64698;BME280;51124;53.394;-6.294;2023-02-13T12:01:23;102183.67;;;20.78;7.79
64698;BME280;51124;53.394;-6.294;2023-02-13T12:03:30;102174.51;;;20.25;7.89
64698;BME280;51124;53.394;-6.294;2023-02-13T12:06:01;102164.76;;;20.91;7.72
64698;BME280;51124;53.394;-6.294;2023-02-13T12:08:27;102156.01;;;20.88;7.80
64698;BME280;51124;53.394;-6.294;2023-02-13T12:10:54;102156.62;;;20.42;7.87
64698;BME280;51124;53.394;-6.294;2023-02-13T12:13:25;102154.25;;;20.48;7.78
64698;BME280;51124;53.394;-6.294;2023-02-13T12:16:00;102159.59;;;20.50;7.78
64698;BME280;51124;53.394;-6.294;2023-02-13T12:18:30;102160.47;;;20.88;7.79
64698;BME280;51124;53.394;-6.294;2023-02-13T12:21:02;102165.09;;;21.20;7.77
64698;BME280;51124;53.394;-6.294;2023-02-13T12:23:34;102161.65;;;21.52;7.85
64698;BME280;51124;53.394;-6.294;2023-02-13T12:26:12;102160.27;;;20.90;7.83
64698;BME280;51124;53.394;-6.294;2023-02-13T12:28:49;102155.65;;;21.00;7.88
64698;BME280;51124;53.394;-6.294;2023-02-13T12:31:16;102159.88;;;22.31;7.79
64698;BME280;51124;53.394;-6.294;2023-02-13T12:33:39;102152.64;;;24.63;8.53
64698;BME280;51124;53.394;-6.294;2023-02-13T12:35:56;102151.92;;;23.81;9.27
64698;BME280;51124;53.394;-6.294;2023-02-13T12:38:33;102163.62;;;23.71;9.47
64698;BME280;51124;53.394;-6.294;2023-02-13T12:41:08;102159.51;;;23.25;9.70
64698;BME280;51124;53.394;-6.294;2023-02-13T12:43:43;102156.83;;;19.32;9.16
64698;BME280;51124;53.394;-6.294;2023-02-13T12:46:07;102148.39;;;21.27;8.81
64698;BME280;51124;53.394;-6.294;2023-02-13T12:48:41;102138.94;;;19.27;8.59
64698;BME280;51124;53.394;-6.294;2023-02-13T12:51:11;102136.67;;;20.83;8.30
64698;BME280;51124;53.394;-6.294;2023-02-13T12:53:46;102136.87;;;21.57;8.27
64698;BME280;51124;53.394;-6.294;2023-02-13T12:56:47;102134.71;;;20.77;8.24
64698;BME280;51124;53.394;-6.294;2023-02-13T12:58:50;102135.14;;;21.96;8.09
64698;BME280;51124;53.394;-6.294;2023-02-13T13:01:15;102131.16;;;22.56;7.97